Архив погоды в Костроме

Метеограмма Кострома
Среда, 21 Августа
Время местн. Темп Ветер Видим Явления Облачность нижн/средн/верх Атм. давл. Влжн Точка росы ВНГО R Сост. почвы Tg s
Напр Скр Прв ур.ст ур.м изм
21:00 +13.2° Ю,Ю-З 2 - 50 км - переменная облачность 757 769 -0.7 95% +12.4° 1 км - - - -
18:00 +21° С 1 - 30 км - переменная облачность 758 769 -0.2 63% +13.7° - - - - -
15:00 +22.7° С 1 - 30 км - переменная облачность 758 769 0 57% +13.7° 1 км - - - -
12:00 +22.7° С,С-З 2 - 30 км - облачно с прояснениями 758 769 +0.2 65% +15.9° 1 км - - - -
09:00 +20.3° С,С-З 2 - 30 км - переменная облачность 758 769 +0.7 84% +17.6° - - - - -
06:00 +17.8° З 2 - 30 км - облачно 757 768 +0.9 96% +17.2° - - Влажная (без луж) - -
03:00 +18.1° З 3 - 50 км - переменная облачность 756 767 +0.5 95% +17.3° - - - - -
00:00 +18.6° Ю 2 - 50 км ливневый дождь {гроза} облачно 756 767 +0.5 96% +17.9° 1 км - - - -
Вторник, 20 Августа
Время местн. Темп Ветер Видим Явления Облачность нижн/средн/верх Атм. давл. Влжн Точка росы ВНГО R Сост. почвы Tg s
Напр Скр Прв ур.ст ур.м изм
21:00 +20.4° Ю 2 - 50 км - облачно с прояснениями 755 766 +0.4 88% +18.4° 1 км - - - -
18:00 +24.5° Ю,Ю-З 2 - 30 км - переменная облачность 755 766 -0.2 70% +18.6° 1 км 0 - - -
15:00 +26.4° Ю 1 - 30 км - незначительная облачность 755 766 -0.4 55% +16.5° более 2.5 км - - - -
12:00 +23.8° Ю 3 - 30 км - незначительная облачность 755 766 +0.1 59% +15.4° 1 км - - - -
09:00 +20.1° Ю 2 - 30 км небо без изменений {туман} незначительная облачность 755 766 +0.7 81% +16.7° 1 км - - - -
06:00 +14.1° Ю 2 - 0.9 км туман усиливается, небо видно незначительная облачность 755 766 +0.6 97% +13.7° более 2.5 км - Влажная (без луж) - -
03:00 +16.2° Ю,Ю-З 2 - 50 км - ясно 754 765 +0.4 93% +15.1° более 2.5 км - - - -
00:00 +17.5° Ю,Ю-З 3 - 50 км - переменная облачность 754 765 +0.8 88% +15.5° более 2.5 км - - - -
Понедельник, 19 Августа
Время местн. Темп Ветер Видим Явления Облачность нижн/средн/верх Атм. давл. Влжн Точка росы ВНГО R Сост. почвы Tg s
Напр Скр Прв ур.ст ур.м изм
21:00 +16.1° Ю 3 - 30 км - незначительная облачность 753 764 +0.9 94% +15.1° 1 км - - - -
18:00 +21.8° Ю 2 - 30 км - незначительная облачность 752 763 +0.5 69% +15.9° 1 км - - - -
15:00 +21.3° Ю,Ю-З 2 - 30 км небо без изменений {ливневые осадки} облачно 751 762 +0.5 71% +15.8° 1 км - - - -
12:00 +19.3° Ю 2 - 30 км слабый ливневый дождь облачно 751 762 +0.7 84% +16.5° 1 км - - - -
09:00 +18.6° В,Ю-В 2 - 30 км - облачно 750 761 +0.8 92% +17.2° 1 км - - - -
06:00 +15.7° Ю 2 - 1.2 км дымка {ливневые осадки, туман} облачно 749 761 +0.1 97% +15.3° 1 км - Влажная (без луж) - -
03:00 +18° Ю-В 2 - 50 км дождь облачно 750 761 +0.4 97% +17.5° 1 км - - - -
00:00 +18.1° В,Ю-В 3 - 50 км - облачно 749 760 0 95% +17.3° 1 км - - - -
Воскресенье, 18 Августа
Время местн. Темп Ветер Видим Явления Облачность нижн/средн/верх Атм. давл. Влжн Точка росы ВНГО R Сост. почвы Tg s
Напр Скр Прв ур.ст ур.м изм
21:00 +18.1° В 2 - 50 км - облачно 749 760 +0.5 93% +17° 1 км - - - -
18:00 +20.4° В 1 - 30 км - облачно 749 760 +0.2 84% +17.6° 1 км - - - -